createdAt,value
2022-09-15T00:02:29.626Z,99077.66
2022-09-15T00:05:32.034Z,99072.16
2022-09-15T00:08:34.138Z,99045.47
2022-09-15T00:11:37.724Z,99034.94
2022-09-15T00:14:39.807Z,98999.25
2022-09-15T00:17:43.205Z,98988.25
2022-09-15T00:20:46.140Z,99003.59
2022-09-15T00:23:49.604Z,99029.91
2022-09-15T00:26:51.664Z,99081.38
2022-09-15T00:29:54.050Z,99066.41
2022-09-15T00:32:56.107Z,99064.53
2022-09-15T00:36:08.512Z,99069.63
2022-09-15T00:39:10.627Z,99096.78
2022-09-15T00:42:18.706Z,99105.41
2022-09-15T00:45:21.028Z,99122.56
2022-09-15T00:48:23.404Z,99136.69
2022-09-15T00:51:38.866Z,99135.94
2022-09-15T00:55:05.193Z,99140.28
2022-09-15T00:58:11.820Z,99139.06
2022-09-15T01:01:16.092Z,99129.69
2022-09-15T01:04:18.343Z,99125.41
2022-09-15T01:07:28.690Z,99139.13
2022-09-15T01:10:37.946Z,99149.69
2022-09-15T01:13:40.351Z,99151.66
2022-09-15T01:16:48.388Z,99139.06
2022-09-15T01:20:13.775Z,99128.97
2022-09-15T01:23:38.038Z,99138.75
2022-09-15T01:26:46.510Z,99134.09
2022-09-15T01:30:02.248Z,99141.19
2022-09-15T01:33:42.924Z,99134.13
2022-09-15T01:36:52.977Z,99130.63
2022-09-15T01:39:58.840Z,99134.16
2022-09-15T01:43:03.019Z,99133.75
2022-09-15T01:46:07.321Z,99132.97
2022-09-15T01:49:14.741Z,99129.88
2022-09-15T01:52:20.948Z,99134.19
2022-09-15T01:55:29.559Z,99140.03
2022-09-15T01:58:32.985Z,99142.44
2022-09-15T02:01:45.194Z,99131.84
2022-09-15T02:04:53.036Z,99146.34
2022-09-15T02:08:09.148Z,99140.47
2022-09-15T02:11:29.020Z,99137.75
2022-09-15T02:14:48.062Z,99139.31
2022-09-15T02:17:54.218Z,99137.34
2022-09-15T02:21:06.290Z,99138.94
2022-09-15T02:24:16.410Z,99150.28
2022-09-15T02:27:23.059Z,99147.13
2022-09-15T02:30:26.514Z,99138.16
2022-09-15T02:33:35.333Z,99145.19
2022-09-15T02:36:39.231Z,99147.16
2022-09-15T02:39:46.777Z,99145.97
2022-09-15T02:42:57.853Z,99145.63
2022-09-15T02:46:00.165Z,99141.72
2022-09-15T02:49:02.985Z,99135.44
2022-09-15T02:52:05.186Z,99136.62
2022-09-15T02:55:08.081Z,99131.16
2022-09-15T02:58:10.153Z,99132.31
2022-09-15T03:01:17.648Z,99144.47
2022-09-15T03:04:20.007Z,99137.00
2022-09-15T03:07:22.358Z,99141.31
2022-09-15T03:10:25.887Z,99142.13
2022-09-15T03:13:28.387Z,99137.00
2022-09-15T03:16:32.751Z,99140.91
2022-09-15T03:19:35.200Z,99138.56
2022-09-15T03:22:37.357Z,99151.12
2022-09-15T03:25:39.683Z,99146.81
2022-09-15T03:28:41.753Z,99140.19
2022-09-15T03:31:44.162Z,99148.00
2022-09-15T03:34:46.254Z,99140.56
2022-09-15T03:37:48.630Z,99142.19
2022-09-15T03:41:02.242Z,99133.94
2022-09-15T03:44:05.183Z,99132.37
2022-09-15T03:47:07.346Z,99126.53
2022-09-15T03:50:09.799Z,99130.84
2022-09-15T03:53:11.915Z,99132.41
2022-09-15T03:56:32.544Z,99137.09
2022-09-15T03:59:34.612Z,99146.87
2022-09-15T04:02:36.948Z,99145.72
2022-09-15T04:05:40.231Z,99153.56
2022-09-15T04:08:42.604Z,99169.22
2022-09-15T04:11:44.967Z,99165.31
2022-09-15T04:14:47.098Z,99159.81
2022-09-15T04:17:49.779Z,99152.75
2022-09-15T04:20:51.898Z,99153.13
2022-09-15T04:23:54.676Z,99156.28
2022-09-15T04:26:56.743Z,99164.88
2022-09-15T04:29:59.067Z,99163.31
2022-09-15T04:33:01.116Z,99169.19
2022-09-15T04:36:06.998Z,99176.22
2022-09-15T04:39:09.076Z,99186.00
2022-09-15T04:42:11.411Z,99189.12
2022-09-15T04:45:13.470Z,99188.31
2022-09-15T04:48:15.849Z,99188.72
2022-09-15T04:51:20.614Z,99178.09
2022-09-15T04:54:23.406Z,99180.84
2022-09-15T04:57:25.497Z,99173.81
2022-09-15T05:00:28.702Z,99170.28
2022-09-15T05:03:30.792Z,99157.72
2022-09-15T05:06:34.940Z,99158.91
2022-09-15T05:09:37.152Z,99175.31
2022-09-15T05:12:39.677Z,99175.69
2022-09-15T05:15:41.769Z,99180.78
2022-09-15T05:18:45.663Z,99189.41
2022-09-15T05:21:47.706Z,99191.75
2022-09-15T05:24:50.022Z,99212.09
2022-09-15T05:27:52.086Z,99221.13
2022-09-15T05:30:56.010Z,99227.78
2022-09-15T05:34:00.832Z,99218.41
2022-09-15T05:37:03.976Z,99230.16
2022-09-15T05:40:08.593Z,99241.53
2022-09-15T05:43:11.306Z,99230.94
2022-09-15T05:46:14.487Z,99223.06
2022-09-15T05:49:16.915Z,99232.13
2022-09-15T05:52:19.396Z,99239.53
2022-09-15T05:55:22.534Z,99230.13
2022-09-15T05:58:25.962Z,99226.94
2022-09-15T06:01:29.910Z,99232.44
2022-09-15T06:04:34.118Z,99234.78
2022-09-15T06:07:42.081Z,99237.94
2022-09-15T06:10:47.373Z,99233.97
2022-09-15T06:13:49.975Z,99241.38
2022-09-15T06:16:52.327Z,99237.88
2022-09-15T06:19:54.923Z,99241.03
2022-09-15T06:22:57.581Z,99242.16
2022-09-15T06:26:26.395Z,99238.59
2022-09-15T06:29:29.007Z,99240.16
2022-09-15T06:32:31.205Z,99260.94
2022-09-15T06:35:33.616Z,99267.56
2022-09-15T06:38:35.683Z,99254.25
2022-09-15T06:42:00.857Z,99254.25
2022-09-15T06:45:01.483Z,99263.22
2022-09-15T06:48:23.429Z,99265.97
2022-09-15T06:51:28.744Z,99267.53
2022-09-15T06:54:31.401Z,99263.59
2022-09-15T06:57:33.517Z,99264.38
2022-09-15T07:00:35.884Z,99269.44
2022-09-15T07:03:43.493Z,99265.91
2022-09-15T07:06:46.590Z,99263.53
2022-09-15T07:09:49.262Z,99272.97
2022-09-15T07:12:51.665Z,99274.50
2022-09-15T07:15:56.418Z,99275.59
2022-09-15T07:19:01.750Z,99284.16
2022-09-15T07:22:04.085Z,99286.09
2022-09-15T07:25:06.856Z,99296.28
2022-09-15T07:28:10.689Z,99291.13
2022-09-15T07:31:15.889Z,99296.19
2022-09-15T07:34:17.998Z,99299.25
2022-09-15T07:37:21.287Z,99301.94
2022-09-15T07:40:23.466Z,99296.78
2022-09-15T07:43:25.853Z,99308.13
2022-09-15T07:46:32.083Z,99310.75
2022-09-15T07:49:34.436Z,99300.19
2022-09-15T07:52:36.592Z,99299.28
2022-09-15T07:55:39.026Z,99294.03
2022-09-15T07:58:42.261Z,99300.75
2022-09-15T08:01:44.885Z,99302.56
2022-09-15T08:04:47.269Z,99308.03
2022-09-15T08:07:50.482Z,99309.50
2022-09-15T08:10:53.376Z,99302.38
2022-09-15T08:13:55.669Z,99297.41
2022-09-15T08:17:01.026Z,99312.06
2022-09-15T08:20:03.217Z,99301.28
2022-09-15T08:23:05.653Z,99315.75
2022-09-15T08:26:13.817Z,99311.12
2022-09-15T08:29:19.160Z,99309.97
2022-09-15T08:32:21.275Z,99306.00
2022-09-15T08:35:23.635Z,99303.97
2022-09-15T08:38:25.803Z,99297.28
2022-09-15T08:41:37.263Z,99288.75
2022-09-15T08:45:16.024Z,99292.91
2022-09-15T08:48:26.261Z,99290.47
2022-09-15T08:51:40.099Z,99280.50
2022-09-15T08:54:45.698Z,99277.66
2022-09-15T08:57:55.171Z,99274.09
2022-09-15T09:01:12.797Z,99277.47
2022-09-15T09:04:53.558Z,99258.22
2022-09-15T09:08:27.074Z,99250.09
2022-09-15T09:11:57.215Z,99250.94
2022-09-15T09:15:02.971Z,99243.78
2022-09-15T09:18:37.501Z,99241.06
2022-09-15T09:21:47.786Z,99235.09
2022-09-15T09:24:55.060Z,99227.59
2022-09-15T09:27:58.419Z,99225.00
2022-09-15T09:31:07.523Z,99222.28
2022-09-15T09:34:20.666Z,99223.13
2022-09-15T09:37:23.781Z,99228.38
2022-09-15T09:40:26.552Z,99229.00
2022-09-15T09:43:29.862Z,99236.00
2022-09-15T09:46:33.000Z,99235.19
2022-09-15T09:49:41.032Z,99241.41
2022-09-15T09:52:43.426Z,99223.44
2022-09-15T09:55:45.955Z,99218.69
2022-09-15T09:58:48.939Z,99216.69
2022-09-15T10:02:15.668Z,99199.97
2022-09-15T10:05:20.399Z,99198.16
2022-09-15T10:08:22.534Z,99197.16
2022-09-15T10:11:48.646Z,99181.06
2022-09-15T10:14:54.689Z,99169.28
2022-09-15T10:17:57.410Z,99160.84
2022-09-15T10:21:01.726Z,99165.75
2022-09-15T10:24:32.438Z,99154.87
2022-09-15T10:27:36.534Z,99137.56
2022-09-15T10:30:39.763Z,99138.56
2022-09-15T10:33:46.055Z,99130.72
2022-09-15T10:36:48.559Z,99122.81
2022-09-15T10:39:55.929Z,99125.91
2022-09-15T10:43:34.137Z,99125.56
2022-09-15T10:46:48.515Z,99126.72
2022-09-15T10:50:13.394Z,99139.00
2022-09-15T10:53:23.358Z,99137.84
2022-09-15T10:56:31.992Z,99127.31
2022-09-15T10:59:45.664Z,99137.41
2022-09-15T11:02:56.910Z,99137.72
2022-09-15T11:06:42.107Z,99147.50
2022-09-15T11:09:53.435Z,99136.34
2022-09-15T11:13:13.817Z,99135.03
2022-09-15T11:16:41.472Z,99135.81
2022-09-15T11:20:15.710Z,99141.66
2022-09-15T11:23:29.626Z,99142.56
2022-09-15T11:26:43.079Z,99141.34
2022-09-15T11:30:05.630Z,99133.94
2022-09-15T11:33:21.149Z,99138.44
2022-09-15T11:36:32.275Z,99131.34
2022-09-15T11:40:06.753Z,99123.56
2022-09-15T11:43:34.557Z,99118.34
2022-09-15T11:46:45.758Z,99101.03
2022-09-15T11:49:55.183Z,99092.84
2022-09-15T11:53:12.162Z,99075.53
2022-09-15T11:56:36.491Z,99055.19
2022-09-15T11:59:50.345Z,99045.50
2022-09-15T12:03:02.048Z,99049.91
2022-09-15T12:06:14.651Z,99060.00
2022-09-15T12:09:18.698Z,99063.87
2022-09-15T12:12:22.545Z,99076.31
2022-09-15T12:15:27.530Z,99078.19
2022-09-15T12:18:43.737Z,99085.19
2022-09-15T12:21:56.775Z,99076.31
2022-09-15T12:25:04.458Z,99071.53
2022-09-15T12:28:21.949Z,99055.31
2022-09-15T12:31:36.876Z,99044.50
2022-09-15T12:34:39.099Z,99051.25
2022-09-15T12:37:52.951Z,99044.31
2022-09-15T12:40:59.507Z,99031.06
2022-09-15T12:44:18.483Z,99034.06
2022-09-15T12:47:38.111Z,99037.06
2022-09-15T12:50:53.142Z,99004.53
2022-09-15T12:54:04.564Z,98978.84
2022-09-15T12:57:18.640Z,98992.44
2022-09-15T13:00:20.599Z,99014.00
2022-09-15T13:03:43.311Z,99023.44
2022-09-15T13:07:18.395Z,99187.28
2022-09-15T13:10:34.565Z,99052.44
2022-09-15T13:13:54.634Z,99050.31
2022-09-15T13:17:06.123Z,99066.88
2022-09-15T13:20:15.380Z,99065.06
2022-09-15T13:23:23.898Z,99072.16
2022-09-15T13:26:28.069Z,99071.06
2022-09-15T13:29:32.915Z,99078.13
2022-09-15T13:32:44.742Z,99079.69
2022-09-15T13:36:19.845Z,99083.22
2022-09-15T13:39:40.472Z,99073.06
2022-09-15T13:43:00.611Z,99076.19
2022-09-15T13:46:14.569Z,99076.19
2022-09-15T13:49:44.829Z,99056.63
2022-09-15T13:53:05.459Z,99059.75
2022-09-15T13:56:12.395Z,99066.78
2022-09-15T13:59:29.473Z,99062.47
2022-09-15T14:02:32.319Z,99046.44
2022-09-15T14:05:36.538Z,99060.53
2022-09-15T14:08:41.605Z,99051.13
2022-09-15T14:11:48.071Z,99059.69
2022-09-15T14:14:54.603Z,99050.31
2022-09-15T14:17:57.028Z,99043.66
2022-09-15T14:21:06.440Z,99047.56
2022-09-15T14:24:20.270Z,99040.91
2022-09-15T14:27:29.104Z,99032.72
2022-09-15T14:30:32.038Z,99051.13
2022-09-15T14:33:39.971Z,99057.00
2022-09-15T14:36:42.489Z,99080.88
2022-09-15T14:40:18.266Z,99095.38
2022-09-15T14:43:30.944Z,99081.66
2022-09-15T14:46:37.800Z,99088.69
2022-09-15T14:49:40.291Z,99071.87
2022-09-15T14:52:46.445Z,99089.06
2022-09-15T14:56:16.357Z,99119.22
2022-09-15T14:59:27.275Z,99127.00
2022-09-15T15:03:06.901Z,99117.66
2022-09-15T15:06:28.678Z,99080.50
2022-09-15T15:09:48.813Z,99079.31
2022-09-15T15:12:54.942Z,99102.00
2022-09-15T15:15:57.371Z,99117.25
2022-09-15T15:18:59.477Z,99119.22
2022-09-15T15:22:14.016Z,99106.31
2022-09-15T15:25:28.755Z,99073.44
2022-09-15T15:28:33.981Z,99081.28
2022-09-15T15:31:40.054Z,99089.09
2022-09-15T15:34:59.885Z,99075.81
2022-09-15T15:38:25.350Z,99127.03
2022-09-15T15:41:30.582Z,99116.47
2022-09-15T15:44:32.942Z,99113.75
2022-09-15T15:47:36.804Z,99107.88
2022-09-15T15:50:38.869Z,99109.44
2022-09-15T15:53:41.998Z,99093.41
2022-09-15T15:56:44.215Z,99087.94
2022-09-15T15:59:46.889Z,99079.72
2022-09-15T16:02:50.697Z,99078.56
2022-09-15T16:05:58.519Z,99076.19
2022-09-15T16:09:02.066Z,99064.09
2022-09-15T16:12:05.138Z,99053.53
2022-09-15T16:15:16.827Z,99039.84
2022-09-15T16:18:19.248Z,99033.19
2022-09-15T16:21:28.729Z,99027.72
2022-09-15T16:24:31.168Z,99018.72
2022-09-15T16:27:33.232Z,99007.78
2022-09-15T16:30:35.572Z,99006.59
2022-09-15T16:33:38.324Z,98997.97
2022-09-15T16:36:40.695Z,99005.81
2022-09-15T16:39:42.848Z,99019.09
2022-09-15T16:42:45.223Z,99008.94
2022-09-15T16:45:48.199Z,99017.56
2022-09-15T16:48:50.777Z,99033.19
2022-09-15T16:51:53.015Z,99041.41
2022-09-15T16:54:56.218Z,99042.56
2022-09-15T16:57:59.844Z,99037.88
2022-09-15T17:01:03.306Z,99042.19
2022-09-15T17:04:12.727Z,99046.88
2022-09-15T17:07:15.058Z,99050.78
2022-09-15T17:10:17.234Z,99054.28
2022-09-15T17:13:27.742Z,99062.53
2022-09-15T17:16:32.326Z,99070.72
2022-09-15T17:19:34.989Z,99071.53
2022-09-15T17:22:37.208Z,99064.09
2022-09-15T17:25:42.577Z,99054.72
2022-09-15T17:28:44.653Z,99046.91
2022-09-15T17:31:46.979Z,99032.84
2022-09-15T17:34:49.041Z,99036.75
2022-09-15T17:37:52.294Z,99031.25
2022-09-15T17:40:55.425Z,99027.75
2022-09-15T17:43:57.945Z,99020.72
2022-09-15T17:47:00.267Z,99026.59
2022-09-15T17:50:02.638Z,99035.56
2022-09-15T17:53:13.527Z,99033.63
2022-09-15T17:56:16.245Z,99036.34
2022-09-15T17:59:18.556Z,99030.88
2022-09-15T18:02:21.361Z,99032.06
2022-09-15T18:05:27.745Z,99033.19
2022-09-15T18:08:30.050Z,99030.47
2022-09-15T18:11:32.385Z,99039.44
2022-09-15T18:14:34.463Z,99037.50
2022-09-15T18:17:36.812Z,99062.87
2022-09-15T18:20:39.084Z,99047.25
2022-09-15T18:23:42.398Z,99044.47
2022-09-15T18:26:45.086Z,99065.63
2022-09-15T18:29:47.530Z,99076.94
2022-09-15T18:32:49.933Z,99061.31
2022-09-15T18:35:55.216Z,99067.53
2022-09-15T18:38:57.659Z,99066.75
2022-09-15T18:42:00.031Z,99061.28
2022-09-15T18:45:02.337Z,99071.84
2022-09-15T18:48:07.070Z,99078.44
2022-09-15T18:51:19.653Z,99069.09
2022-09-15T18:54:26.698Z,99061.28
2022-09-15T18:57:28.803Z,99074.53
2022-09-15T19:00:31.682Z,99074.53
2022-09-15T19:03:34.039Z,99075.72
2022-09-15T19:06:36.495Z,99098.00
2022-09-15T19:09:38.567Z,99089.00
2022-09-15T19:12:40.985Z,99094.47
2022-09-15T19:15:44.119Z,99087.81
2022-09-15T19:18:49.997Z,99081.56
2022-09-15T19:21:52.135Z,99077.69
2022-09-15T19:24:54.917Z,99085.47
2022-09-15T19:27:57.057Z,99084.69
2022-09-15T19:31:00.629Z,99094.78
2022-09-15T19:34:05.561Z,99108.84
2022-09-15T19:37:12.244Z,99111.59
2022-09-15T19:40:17.447Z,99106.12
2022-09-15T19:43:19.824Z,99108.06
2022-09-15T19:46:24.227Z,99106.91
2022-09-15T19:49:26.928Z,99100.25
2022-09-15T19:52:29.054Z,99111.59
2022-09-15T19:55:34.169Z,99117.84
2022-09-15T19:58:36.299Z,99114.75
2022-09-15T20:01:38.673Z,99121.75
2022-09-15T20:04:41.134Z,99116.63
2022-09-15T20:07:44.778Z,99131.09
2022-09-15T20:10:48.240Z,99129.19
2022-09-15T20:13:50.367Z,99132.31
2022-09-15T20:16:54.194Z,99132.34
2022-09-15T20:19:58.436Z,99133.53
2022-09-15T20:23:01.183Z,99138.63
2022-09-15T20:26:08.804Z,99143.31
2022-09-15T20:29:11.792Z,99146.81
2022-09-15T20:32:14.065Z,99136.28
2022-09-15T20:35:17.149Z,99133.16
2022-09-15T20:38:19.641Z,99138.59
2022-09-15T20:41:24.586Z,99147.22
2022-09-15T20:44:26.679Z,99156.56
2022-09-15T20:47:29.040Z,99160.47
2022-09-15T20:50:31.554Z,99161.63
2022-09-15T20:53:34.832Z,99169.44
2022-09-15T20:56:36.985Z,99168.66
2022-09-15T20:59:39.423Z,99172.53
2022-09-15T21:02:41.571Z,99174.09
2022-09-15T21:05:45.462Z,99167.09
2022-09-15T21:08:48.490Z,99186.22
2022-09-15T21:11:53.602Z,99190.50
2022-09-15T21:14:56.294Z,99185.84
2022-09-15T21:17:58.752Z,99178.41
2022-09-15T21:21:03.569Z,99174.50
2022-09-15T21:24:07.778Z,99171.41
2022-09-15T21:27:29.612Z,99176.13
2022-09-15T21:30:31.991Z,99179.59
2022-09-15T21:33:35.188Z,99178.81
2022-09-15T21:36:37.580Z,99172.97
2022-09-15T21:39:39.689Z,99172.97
2022-09-15T21:42:42.108Z,99175.31
2022-09-15T21:45:44.255Z,99178.44
2022-09-15T21:48:48.018Z,99183.53
2022-09-15T21:51:50.263Z,99185.84
2022-09-15T21:54:52.720Z,99213.56
2022-09-15T21:57:55.138Z,99220.59
2022-09-15T22:00:57.548Z,99222.91
2022-09-15T22:04:06.013Z,99229.91
2022-09-15T22:07:08.617Z,99237.72
2022-09-15T22:10:11.007Z,99249.47
2022-09-15T22:13:13.149Z,99259.97
2022-09-15T22:16:21.006Z,99259.59
2022-09-15T22:19:23.216Z,99254.91
2022-09-15T22:22:25.732Z,99243.97
2022-09-15T22:25:27.830Z,99249.78
2022-09-15T22:28:31.211Z,99243.12
2022-09-15T22:31:34.292Z,99238.44
2022-09-15T22:34:36.741Z,99251.69
2022-09-15T22:37:38.861Z,99250.50
2022-09-15T22:40:41.312Z,99261.03
2022-09-15T22:43:45.690Z,99265.72
2022-09-15T22:46:49.679Z,99271.19
2022-09-15T22:49:51.856Z,99272.78
2022-09-15T22:52:55.617Z,99272.34
2022-09-15T22:56:10.564Z,99289.09
2022-09-15T22:59:13.470Z,99296.94
2022-09-15T23:02:15.698Z,99304.72
2022-09-15T23:05:18.099Z,99312.47
2022-09-15T23:08:20.195Z,99327.28
2022-09-15T23:11:23.443Z,99330.81
2022-09-15T23:14:25.698Z,99333.53
2022-09-15T23:17:28.069Z,99338.22
2022-09-15T23:20:30.173Z,99338.63
2022-09-15T23:23:33.251Z,99342.91
2022-09-15T23:26:35.448Z,99337.06
2022-09-15T23:29:39.081Z,99343.63
2022-09-15T23:32:41.216Z,99347.53
2022-09-15T23:35:43.676Z,99337.72
2022-09-15T23:38:47.036Z,99340.50
2022-09-15T23:41:49.606Z,99335.44
2022-09-15T23:44:51.682Z,99340.84
2022-09-15T23:47:54.114Z,99342.72
2022-09-15T23:50:56.206Z,99352.16
2022-09-15T23:53:58.811Z,99339.66
2022-09-15T23:57:00.911Z,99339.66
